createdAt,value
2023-12-29T00:04:03.393Z,85.16
2023-12-29T00:09:06.584Z,83.92
2023-12-29T00:14:10.152Z,85.35
2023-12-29T00:19:14.937Z,84.76
2023-12-29T00:24:19.687Z,88.20
2023-12-29T00:29:25.578Z,89.21
2023-12-29T00:34:27.879Z,89.91
2023-12-29T00:39:39.880Z,87.75
2023-12-29T00:44:42.644Z,87.93
2023-12-29T00:49:45.862Z,86.97
2023-12-29T00:54:53.838Z,86.08
2023-12-29T00:59:58.921Z,85.42
2023-12-29T01:05:01.193Z,85.15
2023-12-29T01:10:03.492Z,85.85
2023-12-29T01:15:08.037Z,86.06
2023-12-29T01:20:14.104Z,87.37
2023-12-29T01:25:18.188Z,87.98
2023-12-29T01:30:20.727Z,88.40
2023-12-29T01:35:25.611Z,89.06
2023-12-29T01:40:30.540Z,89.05
2023-12-29T01:45:40.396Z,88.80
2023-12-29T01:50:49.133Z,89.25
2023-12-29T01:55:57.334Z,89.70
2023-12-29T02:01:02.938Z,89.26
2023-12-29T02:06:08.220Z,89.52
2023-12-29T02:11:12.123Z,89.46
2023-12-29T02:16:36.190Z,89.61
2023-12-29T02:21:38.177Z,93.38
2023-12-29T02:26:45.566Z,94.27
2023-12-29T02:31:53.938Z,95.48
2023-12-29T02:36:57.180Z,95.75
2023-12-29T02:41:59.262Z,95.85
2023-12-29T02:47:01.259Z,95.75
2023-12-29T02:52:03.359Z,94.88
2023-12-29T02:57:05.549Z,94.82
2023-12-29T03:02:07.547Z,94.38
2023-12-29T03:07:10.930Z,94.09
2023-12-29T03:12:12.965Z,95.32
2023-12-29T03:17:15.098Z,93.09
2023-12-29T03:22:17.269Z,90.90
2023-12-29T03:27:19.290Z,89.80
2023-12-29T03:32:21.232Z,90.15
2023-12-29T03:37:23.273Z,89.83
2023-12-29T03:42:27.721Z,88.64
2023-12-29T03:47:31.434Z,89.16
2023-12-29T03:52:33.515Z,89.65
2023-12-29T03:57:35.538Z,90.12
2023-12-29T04:02:38.050Z,88.58
2023-12-29T04:07:43.069Z,87.36
2023-12-29T04:12:46.007Z,86.74
2023-12-29T04:17:48.584Z,85.77
2023-12-29T04:22:50.640Z,86.31
2023-12-29T04:27:52.815Z,85.38
2023-12-29T04:32:54.807Z,86.29
2023-12-29T04:37:59.436Z,85.86
2023-12-29T04:43:01.579Z,86.11
2023-12-29T04:48:04.206Z,86.40
2023-12-29T04:53:06.387Z,86.11
2023-12-29T04:58:08.544Z,86.04
2023-12-29T05:03:10.630Z,84.67
2023-12-29T05:08:12.642Z,85.45
2023-12-29T05:13:14.646Z,85.69
2023-12-29T05:18:16.748Z,85.05
2023-12-29T05:23:18.735Z,85.45
2023-12-29T05:28:20.752Z,84.29
2023-12-29T05:33:22.825Z,85.41
2023-12-29T05:38:25.051Z,85.53
2023-12-29T05:43:27.565Z,85.83
2023-12-29T05:48:29.652Z,86.06
2023-12-29T05:53:31.730Z,86.35
2023-12-29T05:58:33.919Z,86.43
2023-12-29T06:03:36.119Z,87.27
2023-12-29T06:08:38.283Z,87.77
2023-12-29T06:13:40.223Z,87.56
2023-12-29T06:18:42.518Z,87.48
2023-12-29T06:23:45.141Z,88.43
2023-12-29T06:28:48.361Z,88.32
2023-12-29T06:33:50.712Z,88.58
2023-12-29T06:38:53.765Z,88.96
2023-12-29T06:43:55.860Z,90.04
2023-12-29T06:48:58.123Z,90.15
2023-12-29T06:54:00.968Z,90.05
2023-12-29T06:59:02.985Z,93.25
2023-12-29T07:04:05.194Z,96.10
2023-12-29T07:09:08.834Z,97.78
2023-12-29T07:14:10.938Z,98.60
2023-12-29T07:19:13.171Z,100.00
2023-12-29T07:24:15.355Z,99.72
2023-12-29T07:29:17.369Z,100.00
2023-12-29T07:34:19.517Z,100.00
2023-12-29T07:39:21.624Z,100.00
2023-12-29T07:44:24.009Z,100.00
2023-12-29T07:49:27.730Z,100.00
2023-12-29T07:54:29.857Z,100.00
2023-12-29T07:59:31.801Z,100.00
2023-12-29T08:04:34.344Z,100.00
2023-12-29T08:09:36.469Z,100.00
2023-12-29T08:14:38.497Z,100.00
2023-12-29T08:19:41.807Z,100.00
2023-12-29T08:24:46.489Z,100.00
2023-12-29T08:43:30.426Z,100.00
2023-12-29T08:48:32.415Z,100.00
2023-12-29T08:53:36.675Z,100.00
2023-12-29T08:58:38.695Z,100.00
2023-12-29T09:03:40.892Z,100.00
2023-12-29T09:08:42.903Z,98.83
2023-12-29T09:13:45.014Z,99.22
2023-12-29T09:18:47.063Z,99.02
2023-12-29T09:23:50.238Z,97.93
2023-12-29T09:28:52.289Z,97.78
2023-12-29T09:33:54.424Z,97.60
2023-12-29T09:38:56.505Z,97.78
2023-12-29T09:44:02.424Z,97.56
2023-12-29T09:49:06.392Z,96.84
2023-12-29T09:54:13.294Z,96.91
2023-12-29T09:59:17.621Z,96.59
2023-12-29T10:04:19.670Z,95.80
2023-12-29T10:09:22.851Z,95.40
2023-12-29T10:15:06.881Z,95.87
2023-12-29T10:20:27.269Z,95.60
2023-12-29T10:25:29.803Z,95.99
2023-12-29T10:30:35.477Z,95.93
2023-12-29T10:35:41.182Z,95.96
2023-12-29T10:40:44.300Z,95.86
2023-12-29T10:45:46.715Z,95.34
2023-12-29T10:50:49.877Z,95.02
2023-12-29T10:55:52.036Z,94.58
2023-12-29T11:00:55.488Z,93.69
2023-12-29T11:06:03.426Z,92.59
2023-12-29T11:11:06.910Z,92.08
2023-12-29T11:16:10.072Z,92.19
2023-12-29T11:21:13.589Z,89.95
2023-12-29T11:26:16.317Z,89.51
2023-12-29T11:31:19.556Z,89.70
2023-12-29T11:36:33.891Z,88.67
2023-12-29T11:41:53.970Z,88.46
2023-12-29T11:46:58.494Z,88.98
2023-12-29T11:52:00.732Z,86.79
2023-12-29T11:57:02.766Z,87.98
2023-12-29T12:02:26.926Z,87.61
2023-12-29T12:07:29.298Z,88.80
2023-12-29T12:12:44.720Z,88.83
2023-12-29T12:17:51.328Z,88.92
2023-12-29T12:23:02.004Z,88.53
2023-12-29T12:28:08.902Z,87.49
2023-12-29T12:33:15.239Z,87.76
2023-12-29T12:38:25.408Z,87.33
2023-12-29T12:43:29.054Z,88.86
2023-12-29T12:48:42.712Z,89.14
2023-12-29T12:53:48.683Z,89.47
2023-12-29T12:58:53.096Z,89.11
2023-12-29T13:03:55.942Z,90.06
2023-12-29T13:08:58.001Z,90.14
2023-12-29T13:14:01.959Z,89.63
2023-12-29T13:19:26.194Z,90.00
2023-12-29T13:24:30.051Z,90.78
2023-12-29T13:29:36.536Z,90.29
2023-12-29T13:34:55.953Z,90.47
2023-12-29T13:40:05.187Z,90.84
2023-12-29T13:45:10.679Z,90.70
2023-12-29T13:50:13.542Z,90.85
2023-12-29T13:55:25.212Z,91.06
2023-12-29T14:00:30.186Z,91.71
2023-12-29T14:06:01.031Z,91.63
2023-12-29T14:11:14.683Z,92.21
2023-12-29T14:16:21.147Z,92.63
2023-12-29T14:21:34.153Z,92.79
2023-12-29T14:26:38.733Z,92.82
2023-12-29T14:31:43.853Z,93.53
2023-12-29T14:36:47.424Z,92.53
2023-12-29T14:41:49.928Z,95.88
2023-12-29T14:46:52.162Z,99.33
2023-12-29T14:51:54.869Z,100.00
2023-12-29T14:57:08.139Z,100.00
2023-12-29T15:02:13.858Z,100.00
2023-12-29T15:07:20.294Z,100.00
2023-12-29T15:12:22.774Z,100.00
2023-12-29T15:17:41.251Z,100.00
2023-12-29T15:22:44.460Z,100.00
2023-12-29T15:27:47.737Z,100.00
2023-12-29T15:32:53.851Z,100.00
2023-12-29T15:37:57.375Z,100.00
2023-12-29T15:43:00.689Z,100.00
2023-12-29T15:48:04.631Z,100.00
2023-12-29T15:53:07.223Z,100.00
2023-12-29T15:58:10.510Z,100.00
2023-12-29T16:03:19.001Z,100.00
2023-12-29T16:08:24.254Z,100.00
2023-12-29T16:13:27.556Z,100.00
2023-12-29T16:18:29.666Z,100.00
2023-12-29T16:23:31.902Z,100.00
2023-12-29T16:28:34.411Z,100.00
2023-12-29T16:33:45.032Z,100.00
2023-12-29T16:38:52.671Z,100.00
2023-12-29T16:43:54.952Z,100.00
2023-12-29T16:48:58.344Z,100.00
2023-12-29T16:54:03.282Z,100.00
2023-12-29T16:59:07.167Z,100.00
2023-12-29T17:04:19.395Z,100.00
2023-12-29T17:09:22.815Z,100.00
2023-12-29T17:14:32.408Z,100.00
2023-12-29T17:19:34.610Z,100.00
2023-12-29T17:24:40.384Z,100.00
2023-12-29T17:29:43.723Z,100.00
2023-12-29T17:34:46.879Z,100.00
2023-12-29T17:39:48.990Z,100.00
2023-12-29T17:44:55.778Z,100.00
2023-12-29T17:49:58.079Z,100.00
2023-12-29T17:55:02.342Z,100.00
2023-12-29T18:00:06.668Z,100.00
2023-12-29T18:05:09.878Z,100.00
2023-12-29T18:10:14.533Z,100.00
2023-12-29T18:15:18.679Z,100.00
2023-12-29T18:20:28.074Z,100.00
2023-12-29T18:25:33.179Z,100.00
2023-12-29T18:30:35.385Z,100.00
2023-12-29T18:35:43.467Z,100.00
2023-12-29T18:40:49.120Z,100.00
2023-12-29T18:45:51.613Z,100.00
2023-12-29T18:50:53.656Z,100.00
2023-12-29T18:55:57.638Z,100.00
2023-12-29T19:01:04.113Z,100.00
2023-12-29T19:06:06.680Z,100.00
2023-12-29T19:11:20.793Z,100.00
2023-12-29T19:16:28.094Z,100.00
2023-12-29T19:21:31.208Z,100.00
2023-12-29T19:26:35.194Z,100.00
2023-12-29T19:31:40.244Z,100.00
2023-12-29T19:36:42.248Z,100.00
2023-12-29T19:41:44.692Z,100.00
2023-12-29T19:46:47.669Z,100.00
2023-12-29T19:51:52.609Z,100.00
2023-12-29T19:57:01.966Z,100.00
2023-12-29T20:02:05.066Z,100.00
2023-12-29T20:07:07.282Z,100.00
2023-12-29T20:12:30.869Z,98.66
2023-12-29T20:17:39.773Z,100.00
2023-12-29T20:22:41.715Z,100.00
2023-12-29T20:27:43.795Z,100.00
2023-12-29T20:32:47.125Z,100.00
2023-12-29T20:37:49.980Z,100.00
2023-12-29T20:42:53.478Z,100.00
2023-12-29T20:47:55.702Z,100.00
2023-12-29T20:52:57.854Z,100.00
2023-12-29T20:58:02.332Z,100.00
2023-12-29T21:03:08.055Z,100.00
2023-12-29T21:08:10.468Z,100.00
2023-12-29T21:13:12.515Z,100.00
2023-12-29T21:18:14.686Z,100.00
2023-12-29T21:23:19.969Z,100.00
2023-12-29T21:28:22.499Z,99.66
2023-12-29T21:33:29.359Z,100.00
2023-12-29T21:38:31.368Z,98.55
2023-12-29T21:43:40.598Z,100.00
2023-12-29T21:48:42.994Z,100.00
2023-12-29T21:53:46.361Z,100.00
2023-12-29T21:58:53.719Z,100.00
2023-12-29T22:04:00.197Z,100.00
2023-12-29T22:09:07.348Z,100.00
2023-12-29T22:14:09.482Z,100.00
2023-12-29T22:19:17.732Z,100.00
2023-12-29T22:24:23.126Z,100.00
2023-12-29T22:29:26.278Z,100.00
2023-12-29T22:34:35.327Z,100.00
2023-12-29T22:39:37.556Z,100.00
2023-12-29T22:44:45.359Z,100.00
2023-12-29T22:49:50.054Z,100.00
2023-12-29T22:54:52.135Z,100.00
2023-12-29T22:59:54.235Z,100.00
2023-12-29T23:04:56.156Z,100.00
2023-12-29T23:10:01.055Z,100.00
2023-12-29T23:15:06.949Z,100.00
2023-12-29T23:20:09.940Z,100.00
2023-12-29T23:25:15.477Z,100.00
2023-12-29T23:30:21.076Z,100.00
2023-12-29T23:35:24.767Z,100.00
2023-12-29T23:40:28.105Z,100.00
2023-12-29T23:45:30.652Z,100.00
2023-12-29T23:50:35.075Z,100.00
2023-12-29T23:55:37.092Z,100.00
